sensor_id;sensor_type;location;lat;lon;timestamp;pressure;altitude;pressure_sealevel;temperature;humidity
68873;BME280;55907;50.806;12.882;2024-01-07T00:02:37;969.8;;;0.9;91.7
68873;BME280;55907;50.806;12.882;2024-01-07T00:05:38;969.9;;;0.8;92.3
68873;BME280;55907;50.806;12.882;2024-01-07T00:08:39;970.0;;;0.7;92.2
68873;BME280;55907;50.806;12.882;2024-01-07T00:11:40;970.0;;;0.7;92.8
68873;BME280;55907;50.806;12.882;2024-01-07T00:14:41;970.1;;;0.6;92.5
68873;BME280;55907;50.806;12.882;2024-01-07T00:17:41;970.1;;;0.7;92.8
68873;BME280;55907;50.806;12.882;2024-01-07T00:20:42;970.2;;;0.7;92.6
68873;BME280;55907;50.806;12.882;2024-01-07T00:23:43;970.2;;;0.7;92.6
68873;BME280;55907;50.806;12.882;2024-01-07T00:26:44;970.2;;;0.6;92.6
68873;BME280;55907;50.806;12.882;2024-01-07T00:29:45;970.2;;;0.6;92.6
68873;BME280;55907;50.806;12.882;2024-01-07T00:32:46;970.2;;;0.5;92.7
68873;BME280;55907;50.806;12.882;2024-01-07T00:35:46;970.2;;;0.5;93.2
68873;BME280;55907;50.806;12.882;2024-01-07T00:38:47;970.3;;;0.4;92.8
68873;BME280;55907;50.806;12.882;2024-01-07T00:41:48;970.3;;;0.4;92.8
68873;BME280;55907;50.806;12.882;2024-01-07T00:44:49;970.3;;;0.4;93.0
68873;BME280;55907;50.806;12.882;2024-01-07T00:47:50;970.3;;;0.5;91.3
68873;BME280;55907;50.806;12.882;2024-01-07T00:50:51;970.3;;;0.6;90.8
68873;BME280;55907;50.806;12.882;2024-01-07T00:53:51;970.3;;;0.6;89.6
68873;BME280;55907;50.806;12.882;2024-01-07T00:56:52;970.3;;;0.6;89.1
68873;BME280;55907;50.806;12.882;2024-01-07T00:59:53;970.4;;;0.7;89.4
68873;BME280;55907;50.806;12.882;2024-01-07T01:02:54;970.4;;;0.6;89.1
68873;BME280;55907;50.806;12.882;2024-01-07T01:05:55;970.4;;;0.7;88.1
68873;BME280;55907;50.806;12.882;2024-01-07T01:08:56;970.4;;;0.7;87.5
68873;BME280;55907;50.806;12.882;2024-01-07T01:11:57;970.4;;;0.6;87.1
68873;BME280;55907;50.806;12.882;2024-01-07T01:14:57;970.5;;;0.6;86.3
68873;BME280;55907;50.806;12.882;2024-01-07T01:17:58;970.5;;;0.5;86.4
68873;BME280;55907;50.806;12.882;2024-01-07T01:20:59;970.5;;;0.5;86.3
68873;BME280;55907;50.806;12.882;2024-01-07T01:24:00;970.5;;;0.4;86.7
68873;BME280;55907;50.806;12.882;2024-01-07T01:27:01;970.6;;;0.4;87.2
68873;BME280;55907;50.806;12.882;2024-01-07T01:30:02;970.5;;;0.4;87.2
68873;BME280;55907;50.806;12.882;2024-01-07T01:33:03;970.5;;;0.4;87.0
68873;BME280;55907;50.806;12.882;2024-01-07T01:36:05;970.6;;;0.4;87.5
68873;BME280;55907;50.806;12.882;2024-01-07T01:39:04;970.7;;;0.3;87.8
68873;BME280;55907;50.806;12.882;2024-01-07T01:42:05;970.7;;;0.2;88.3
68873;BME280;55907;50.806;12.882;2024-01-07T01:45:06;970.7;;;0.2;88.7
68873;BME280;55907;50.806;12.882;2024-01-07T01:48:07;970.7;;;0.2;88.9
68873;BME280;55907;50.806;12.882;2024-01-07T01:51:08;970.7;;;0.1;89.2
68873;BME280;55907;50.806;12.882;2024-01-07T01:54:08;970.7;;;0.2;89.1
68873;BME280;55907;50.806;12.882;2024-01-07T01:57:13;970.8;;;0.1;89.8
68873;BME280;55907;50.806;12.882;2024-01-07T02:00:11;970.8;;;0.2;89.8
68873;BME280;55907;50.806;12.882;2024-01-07T02:03:11;970.8;;;0.2;89.7
68873;BME280;55907;50.806;12.882;2024-01-07T02:06:12;970.8;;;0.2;89.1
68873;BME280;55907;50.806;12.882;2024-01-07T02:09:12;970.9;;;0.1;89.0
68873;BME280;55907;50.806;12.882;2024-01-07T02:12:13;970.9;;;0.1;89.4
68873;BME280;55907;50.806;12.882;2024-01-07T02:15:14;970.9;;;-0.1;89.9
68873;BME280;55907;50.806;12.882;2024-01-07T02:18:15;970.9;;;-0.1;90.1
68873;BME280;55907;50.806;12.882;2024-01-07T02:21:16;970.9;;;-0.2;90.0
68873;BME280;55907;50.806;12.882;2024-01-07T02:24:17;971.0;;;-0.1;89.5
68873;BME280;55907;50.806;12.882;2024-01-07T02:27:17;971.0;;;-0.2;89.0
68873;BME280;55907;50.806;12.882;2024-01-07T02:30:18;971.1;;;-0.1;88.8
68873;BME280;55907;50.806;12.882;2024-01-07T02:33:19;971.0;;;-0.1;88.3
68873;BME280;55907;50.806;12.882;2024-01-07T02:36:20;971.1;;;-0.2;88.1
68873;BME280;55907;50.806;12.882;2024-01-07T02:39:21;971.1;;;-0.2;87.9
68873;BME280;55907;50.806;12.882;2024-01-07T02:42:22;971.1;;;-0.2;87.8
68873;BME280;55907;50.806;12.882;2024-01-07T02:45:22;971.2;;;-0.2;87.6
68873;BME280;55907;50.806;12.882;2024-01-07T02:48:23;971.1;;;-0.2;88.0
68873;BME280;55907;50.806;12.882;2024-01-07T02:51:24;971.2;;;-0.1;87.6
68873;BME280;55907;50.806;12.882;2024-01-07T02:54:25;971.2;;;-0.1;87.1
68873;BME280;55907;50.806;12.882;2024-01-07T02:57:26;971.2;;;-0.1;86.7
68873;BME280;55907;50.806;12.882;2024-01-07T03:00:26;971.3;;;-0.2;86.9
68873;BME280;55907;50.806;12.882;2024-01-07T03:03:27;971.3;;;-0.1;86.6
68873;BME280;55907;50.806;12.882;2024-01-07T03:06:28;971.3;;;-0.2;86.5
68873;BME280;55907;50.806;12.882;2024-01-07T03:09:29;971.3;;;-0.3;87.1
68873;BME280;55907;50.806;12.882;2024-01-07T03:12:30;971.3;;;-0.3;87.1
68873;BME280;55907;50.806;12.882;2024-01-07T03:15:31;971.3;;;-0.2;86.9
68873;BME280;55907;50.806;12.882;2024-01-07T03:18:31;971.3;;;-0.3;87.2
68873;BME280;55907;50.806;12.882;2024-01-07T03:21:32;971.3;;;-0.2;86.6
68873;BME280;55907;50.806;12.882;2024-01-07T03:24:33;971.3;;;-0.2;86.9
68873;BME280;55907;50.806;12.882;2024-01-07T03:27:34;971.3;;;-0.1;86.6
68873;BME280;55907;50.806;12.882;2024-01-07T03:30:35;971.3;;;-0.2;86.6
68873;BME280;55907;50.806;12.882;2024-01-07T03:33:36;971.4;;;-0.1;86.5
68873;BME280;55907;50.806;12.882;2024-01-07T03:36:37;971.4;;;-0.2;86.7
68873;BME280;55907;50.806;12.882;2024-01-07T03:39:37;971.4;;;-0.2;86.4
68873;BME280;55907;50.806;12.882;2024-01-07T03:42:38;971.4;;;-0.3;86.4
68873;BME280;55907;50.806;12.882;2024-01-07T03:45:39;971.4;;;-0.4;86.4
68873;BME280;55907;50.806;12.882;2024-01-07T03:48:40;971.5;;;-0.5;87.0
68873;BME280;55907;50.806;12.882;2024-01-07T03:51:41;971.5;;;-0.6;87.4
68873;BME280;55907;50.806;12.882;2024-01-07T03:54:41;971.5;;;-0.6;87.5
68873;BME280;55907;50.806;12.882;2024-01-07T03:57:43;971.5;;;-0.6;87.4
68873;BME280;55907;50.806;12.882;2024-01-07T04:00:43;971.5;;;-0.6;87.5
68873;BME280;55907;50.806;12.882;2024-01-07T04:03:44;971.5;;;-0.6;87.3
68873;BME280;55907;50.806;12.882;2024-01-07T04:06:45;971.5;;;-0.6;87.7
68873;BME280;55907;50.806;12.882;2024-01-07T04:09:46;971.6;;;-0.7;88.0
68873;BME280;55907;50.806;12.882;2024-01-07T04:12:46;971.6;;;-0.7;88.1
68873;BME280;55907;50.806;12.882;2024-01-07T04:15:47;971.6;;;-0.7;88.5
68873;BME280;55907;50.806;12.882;2024-01-07T04:18:48;971.6;;;-0.6;88.0
68873;BME280;55907;50.806;12.882;2024-01-07T04:21:49;971.6;;;-0.6;87.9
68873;BME280;55907;50.806;12.882;2024-01-07T04:24:50;971.7;;;-0.6;88.1
68873;BME280;55907;50.806;12.882;2024-01-07T04:27:51;971.7;;;-0.7;87.9
68873;BME280;55907;50.806;12.882;2024-01-07T04:30:51;971.7;;;-0.7;88.3
68873;BME280;55907;50.806;12.882;2024-01-07T04:33:52;971.8;;;-0.7;88.0
68873;BME280;55907;50.806;12.882;2024-01-07T04:36:53;971.8;;;-0.8;87.6
68873;BME280;55907;50.806;12.882;2024-01-07T04:39:54;971.8;;;-0.7;88.0
68873;BME280;55907;50.806;12.882;2024-01-07T04:42:55;971.9;;;-0.7;87.6
68873;BME280;55907;50.806;12.882;2024-01-07T04:45:56;971.9;;;-0.6;88.1
68873;BME280;55907;50.806;12.882;2024-01-07T04:48:56;972.0;;;-0.5;87.5
68873;BME280;55907;50.806;12.882;2024-01-07T04:51:57;972.0;;;-0.6;87.5
68873;BME280;55907;50.806;12.882;2024-01-07T04:54:58;972.0;;;-0.8;87.0
68873;BME280;55907;50.806;12.882;2024-01-07T04:57:59;972.0;;;-0.9;87.5
68873;BME280;55907;50.806;12.882;2024-01-07T05:01:00;972.0;;;-0.9;87.2
68873;BME280;55907;50.806;12.882;2024-01-07T05:04:01;972.0;;;-0.8;87.3
68873;BME280;55907;50.806;12.882;2024-01-07T05:07:02;972.1;;;-0.9;86.9
68873;BME280;55907;50.806;12.882;2024-01-07T05:10:03;972.0;;;-0.9;86.8
68873;BME280;55907;50.806;12.882;2024-01-07T05:13:03;972.1;;;-0.9;86.9
68873;BME280;55907;50.806;12.882;2024-01-07T05:16:04;972.1;;;-0.9;86.4
68873;BME280;55907;50.806;12.882;2024-01-07T05:19:05;972.2;;;-0.9;86.0
68873;BME280;55907;50.806;12.882;2024-01-07T05:22:06;972.2;;;-0.9;85.8
68873;BME280;55907;50.806;12.882;2024-01-07T05:25:06;972.3;;;-1.0;85.5
68873;BME280;55907;50.806;12.882;2024-01-07T05:28:07;972.2;;;-1.0;85.4
68873;BME280;55907;50.806;12.882;2024-01-07T05:31:14;972.2;;;-1.1;85.4
68873;BME280;55907;50.806;12.882;2024-01-07T05:34:09;972.3;;;-1.0;85.4
68873;BME280;55907;50.806;12.882;2024-01-07T05:37:10;972.3;;;-1.1;84.9
68873;BME280;55907;50.806;12.882;2024-01-07T05:40:11;972.4;;;-1.1;84.8
68873;BME280;55907;50.806;12.882;2024-01-07T05:43:11;972.4;;;-1.2;84.7
68873;BME280;55907;50.806;12.882;2024-01-07T05:46:12;972.4;;;-1.1;85.1
68873;BME280;55907;50.806;12.882;2024-01-07T05:49:13;972.4;;;-1.0;84.8
68873;BME280;55907;50.806;12.882;2024-01-07T05:52:14;972.4;;;-0.9;84.2
68873;BME280;55907;50.806;12.882;2024-01-07T05:55:15;972.5;;;-1.0;84.9
68873;BME280;55907;50.806;12.882;2024-01-07T05:58:16;972.5;;;-1.0;84.7
68873;BME280;55907;50.806;12.882;2024-01-07T06:01:18;972.5;;;-1.1;84.4
68873;BME280;55907;50.806;12.882;2024-01-07T06:04:17;972.6;;;-1.0;84.7
68873;BME280;55907;50.806;12.882;2024-01-07T06:07:18;972.6;;;-1.0;84.2
68873;BME280;55907;50.806;12.882;2024-01-07T06:10:21;972.7;;;-1.1;84.2
68873;BME280;55907;50.806;12.882;2024-01-07T06:13:20;972.7;;;-1.1;83.8
68873;BME280;55907;50.806;12.882;2024-01-07T06:16:21;972.8;;;-1.2;84.1
68873;BME280;55907;50.806;12.882;2024-01-07T06:19:22;972.8;;;-1.2;84.1
68873;BME280;55907;50.806;12.882;2024-01-07T06:22:22;972.8;;;-1.1;84.2
68873;BME280;55907;50.806;12.882;2024-01-07T06:25:23;972.9;;;-1.1;83.7
68873;BME280;55907;50.806;12.882;2024-01-07T06:28:24;972.9;;;-1.1;83.6
68873;BME280;55907;50.806;12.882;2024-01-07T06:31:25;972.9;;;-1.2;83.6
68873;BME280;55907;50.806;12.882;2024-01-07T06:34:26;973.0;;;-1.4;83.8
68873;BME280;55907;50.806;12.882;2024-01-07T06:37:27;973.0;;;-1.4;84.3
68873;BME280;55907;50.806;12.882;2024-01-07T06:40:27;973.0;;;-1.4;84.3
68873;BME280;55907;50.806;12.882;2024-01-07T06:43:28;973.0;;;-1.5;83.8
68873;BME280;55907;50.806;12.882;2024-01-07T06:46:29;973.1;;;-1.4;84.1
68873;BME280;55907;50.806;12.882;2024-01-07T06:49:30;973.2;;;-1.2;84.1
68873;BME280;55907;50.806;12.882;2024-01-07T06:52:31;973.3;;;-1.3;83.5
68873;BME280;55907;50.806;12.882;2024-01-07T06:55:32;973.2;;;-1.4;83.8
68873;BME280;55907;50.806;12.882;2024-01-07T06:58:32;973.3;;;-1.3;83.6
68873;BME280;55907;50.806;12.882;2024-01-07T07:01:33;973.3;;;-1.5;83.7
68873;BME280;55907;50.806;12.882;2024-01-07T07:04:34;973.4;;;-1.4;83.5
68873;BME280;55907;50.806;12.882;2024-01-07T07:07:35;973.4;;;-1.2;83.4
68873;BME280;55907;50.806;12.882;2024-01-07T07:10:36;973.4;;;-1.1;82.9
68873;BME280;55907;50.806;12.882;2024-01-07T07:13:37;973.4;;;-1.0;83.0
68873;BME280;55907;50.806;12.882;2024-01-07T07:16:37;973.4;;;-1.1;82.1
68873;BME280;55907;50.806;12.882;2024-01-07T07:19:38;973.5;;;-1.1;82.1
68873;BME280;55907;50.806;12.882;2024-01-07T07:22:39;973.5;;;-1.3;81.7
68873;BME280;55907;50.806;12.882;2024-01-07T07:25:40;973.6;;;-1.3;81.8
68873;BME280;55907;50.806;12.882;2024-01-07T07:28:42;973.6;;;-1.3;82.3
68873;BME280;55907;50.806;12.882;2024-01-07T07:31:42;973.7;;;-1.2;82.3
68873;BME280;55907;50.806;12.882;2024-01-07T07:34:42;973.8;;;-1.2;81.8
68873;BME280;55907;50.806;12.882;2024-01-07T07:37:43;973.8;;;-1.3;81.6
68873;BME280;55907;50.806;12.882;2024-01-07T07:40:44;973.8;;;-1.3;82.0
68873;BME280;55907;50.806;12.882;2024-01-07T07:43:45;973.8;;;-1.3;81.3
68873;BME280;55907;50.806;12.882;2024-01-07T07:46:46;973.9;;;-1.3;81.7
68873;BME280;55907;50.806;12.882;2024-01-07T07:49:47;974.0;;;-1.3;81.1
68873;BME280;55907;50.806;12.882;2024-01-07T07:52:47;974.0;;;-1.4;81.4
68873;BME280;55907;50.806;12.882;2024-01-07T07:55:48;974.0;;;-1.4;81.9
68873;BME280;55907;50.806;12.882;2024-01-07T07:58:49;974.0;;;-1.5;81.4
68873;BME280;55907;50.806;12.882;2024-01-07T08:01:50;974.1;;;-1.4;80.9
68873;BME280;55907;50.806;12.882;2024-01-07T08:04:51;974.1;;;-1.3;80.5
68873;BME280;55907;50.806;12.882;2024-01-07T08:07:52;974.1;;;-1.3;80.7
68873;BME280;55907;50.806;12.882;2024-01-07T08:10:52;974.1;;;-1.2;80.8
68873;BME280;55907;50.806;12.882;2024-01-07T08:13:54;974.2;;;-1.2;80.6
68873;BME280;55907;50.806;12.882;2024-01-07T08:16:54;974.2;;;-1.2;79.9
68873;BME280;55907;50.806;12.882;2024-01-07T08:19:55;974.3;;;-1.2;79.8
68873;BME280;55907;50.806;12.882;2024-01-07T08:22:56;974.3;;;-1.3;80.1
68873;BME280;55907;50.806;12.882;2024-01-07T08:25:57;974.3;;;-1.3;80.8
68873;BME280;55907;50.806;12.882;2024-01-07T08:28:57;974.4;;;-1.3;79.7
68873;BME280;55907;50.806;12.882;2024-01-07T08:31:58;974.4;;;-1.2;79.1
68873;BME280;55907;50.806;12.882;2024-01-07T08:34:59;974.5;;;-1.2;78.6
68873;BME280;55907;50.806;12.882;2024-01-07T08:38:00;974.4;;;-1.3;78.4
68873;BME280;55907;50.806;12.882;2024-01-07T08:41:01;974.5;;;-1.3;78.7
68873;BME280;55907;50.806;12.882;2024-01-07T08:47:03;974.6;;;-1.4;78.4
68873;BME280;55907;50.806;12.882;2024-01-07T08:50:04;974.6;;;-1.3;78.0
68873;BME280;55907;50.806;12.882;2024-01-07T08:53:04;974.6;;;-1.3;78.2
68873;BME280;55907;50.806;12.882;2024-01-07T08:56:05;974.6;;;-1.2;78.5
68873;BME280;55907;50.806;12.882;2024-01-07T08:59:06;974.7;;;-1.2;77.0
68873;BME280;55907;50.806;12.882;2024-01-07T09:02:07;974.7;;;-1.4;77.1
68873;BME280;55907;50.806;12.882;2024-01-07T09:05:07;974.8;;;-1.4;77.5
68873;BME280;55907;50.806;12.882;2024-01-07T09:08:08;974.7;;;-1.5;76.5
68873;BME280;55907;50.806;12.882;2024-01-07T09:11:09;974.8;;;-1.5;76.3
68873;BME280;55907;50.806;12.882;2024-01-07T09:14:10;974.8;;;-1.6;77.0
68873;BME280;55907;50.806;12.882;2024-01-07T09:17:11;974.8;;;-1.4;77.3
68873;BME280;55907;50.806;12.882;2024-01-07T09:20:12;974.9;;;-1.5;76.4
68873;BME280;55907;50.806;12.882;2024-01-07T09:23:12;974.9;;;-1.4;76.7
68873;BME280;55907;50.806;12.882;2024-01-07T09:26:13;974.9;;;-1.5;75.6
68873;BME280;55907;50.806;12.882;2024-01-07T09:29:14;975.0;;;-1.5;76.4
68873;BME280;55907;50.806;12.882;2024-01-07T09:32:18;974.9;;;-1.5;76.0
68873;BME280;55907;50.806;12.882;2024-01-07T09:35:16;975.0;;;-1.5;75.4
68873;BME280;55907;50.806;12.882;2024-01-07T09:38:17;975.0;;;-1.5;75.4
68873;BME280;55907;50.806;12.882;2024-01-07T09:44:18;975.0;;;-1.5;75.0
68873;BME280;55907;50.806;12.882;2024-01-07T09:47:19;975.0;;;-1.4;76.3
68873;BME280;55907;50.806;12.882;2024-01-07T09:50:20;975.1;;;-1.3;75.3
68873;BME280;55907;50.806;12.882;2024-01-07T09:53:25;975.0;;;-1.3;74.1
68873;BME280;55907;50.806;12.882;2024-01-07T09:56:25;975.0;;;-1.4;74.0
68873;BME280;55907;50.806;12.882;2024-01-07T09:59:22;975.0;;;-1.5;74.3
68873;BME280;55907;50.806;12.882;2024-01-07T10:02:23;975.0;;;-1.5;75.2
68873;BME280;55907;50.806;12.882;2024-01-07T10:05:24;975.1;;;-1.4;74.7
68873;BME280;55907;50.806;12.882;2024-01-07T10:08:25;975.1;;;-1.5;73.7
68873;BME280;55907;50.806;12.882;2024-01-07T10:11:26;975.1;;;-1.5;73.4
68873;BME280;55907;50.806;12.882;2024-01-07T10:14:27;975.1;;;-1.6;73.5
68873;BME280;55907;50.806;12.882;2024-01-07T10:17:27;975.1;;;-1.5;73.7
68873;BME280;55907;50.806;12.882;2024-01-07T10:20:28;975.1;;;-1.5;73.4
68873;BME280;55907;50.806;12.882;2024-01-07T10:23:29;975.1;;;-1.5;74.0
68873;BME280;55907;50.806;12.882;2024-01-07T10:26:30;975.1;;;-1.6;73.4
68873;BME280;55907;50.806;12.882;2024-01-07T10:29:31;975.1;;;-1.6;73.4
68873;BME280;55907;50.806;12.882;2024-01-07T10:32:32;975.2;;;-1.7;73.0
68873;BME280;55907;50.806;12.882;2024-01-07T10:35:34;975.2;;;-1.9;73.5
68873;BME280;55907;50.806;12.882;2024-01-07T10:38:33;975.2;;;-1.9;73.7
68873;BME280;55907;50.806;12.882;2024-01-07T10:41:37;975.3;;;-1.8;74.2
68873;BME280;55907;50.806;12.882;2024-01-07T10:44:36;975.4;;;-1.7;73.9
68873;BME280;55907;50.806;12.882;2024-01-07T10:47:36;975.4;;;-1.5;72.9
68873;BME280;55907;50.806;12.882;2024-01-07T10:50:37;975.4;;;-1.7;71.7
68873;BME280;55907;50.806;12.882;2024-01-07T10:53:38;975.4;;;-1.7;71.8
68873;BME280;55907;50.806;12.882;2024-01-07T10:56:43;975.4;;;-1.6;71.7
68873;BME280;55907;50.806;12.882;2024-01-07T10:59:40;975.4;;;-1.6;71.4
68873;BME280;55907;50.806;12.882;2024-01-07T11:02:46;975.4;;;-1.5;71.6
68873;BME280;55907;50.806;12.882;2024-01-07T11:08:45;975.3;;;-1.8;70.9
68873;BME280;55907;50.806;12.882;2024-01-07T11:11:42;975.3;;;-1.7;71.4
68873;BME280;55907;50.806;12.882;2024-01-07T11:14:44;975.4;;;-1.6;71.1
68873;BME280;55907;50.806;12.882;2024-01-07T11:17:44;975.4;;;-1.8;70.6
68873;BME280;55907;50.806;12.882;2024-01-07T11:20:45;975.3;;;-2.0;71.2
68873;BME280;55907;50.806;12.882;2024-01-07T11:23:45;975.4;;;-2.0;71.1
68873;BME280;55907;50.806;12.882;2024-01-07T11:26:46;975.4;;;-1.9;70.5
68873;BME280;55907;50.806;12.882;2024-01-07T11:29:52;975.4;;;-2.0;70.9
68873;BME280;55907;50.806;12.882;2024-01-07T11:32:56;975.5;;;-1.9;70.8
68873;BME280;55907;50.806;12.882;2024-01-07T11:36:00;975.5;;;-1.7;70.1
68873;BME280;55907;50.806;12.882;2024-01-07T11:38:50;975.5;;;-1.7;69.3
68873;BME280;55907;50.806;12.882;2024-01-07T11:41:50;975.5;;;-1.8;69.2
68873;BME280;55907;50.806;12.882;2024-01-07T11:44:53;975.5;;;-1.7;69.1
68873;BME280;55907;50.806;12.882;2024-01-07T11:47:52;975.5;;;-1.7;69.5
68873;BME280;55907;50.806;12.882;2024-01-07T11:50:53;975.6;;;-1.7;69.0
68873;BME280;55907;50.806;12.882;2024-01-07T11:53:54;975.6;;;-1.7;68.8
68873;BME280;55907;50.806;12.882;2024-01-07T11:56:55;975.6;;;-1.6;68.2
68873;BME280;55907;50.806;12.882;2024-01-07T11:59:55;975.6;;;-1.7;67.7
68873;BME280;55907;50.806;12.882;2024-01-07T12:02:56;975.7;;;-1.7;67.7
68873;BME280;55907;50.806;12.882;2024-01-07T12:05:57;975.7;;;-1.9;67.4
68873;BME280;55907;50.806;12.882;2024-01-07T12:08:58;975.7;;;-1.9;67.1
68873;BME280;55907;50.806;12.882;2024-01-07T12:11:59;975.8;;;-1.9;68.2
68873;BME280;55907;50.806;12.882;2024-01-07T12:14:59;975.8;;;-1.9;67.3
68873;BME280;55907;50.806;12.882;2024-01-07T12:18:00;975.9;;;-2.0;67.0
68873;BME280;55907;50.806;12.882;2024-01-07T12:21:01;975.9;;;-2.0;66.8
68873;BME280;55907;50.806;12.882;2024-01-07T12:24:02;976.0;;;-2.1;66.5
68873;BME280;55907;50.806;12.882;2024-01-07T12:27:04;976.0;;;-2.0;66.1
68873;BME280;55907;50.806;12.882;2024-01-07T12:30:04;976.0;;;-2.0;66.0
68873;BME280;55907;50.806;12.882;2024-01-07T12:33:04;976.0;;;-2.0;64.9
68873;BME280;55907;50.806;12.882;2024-01-07T12:39:06;976.0;;;-1.9;65.4
68873;BME280;55907;50.806;12.882;2024-01-07T12:42:06;976.1;;;-2.0;64.7
68873;BME280;55907;50.806;12.882;2024-01-07T12:45:08;976.2;;;-2.1;64.2
68873;BME280;55907;50.806;12.882;2024-01-07T12:51:09;976.1;;;-1.9;64.2
68873;BME280;55907;50.806;12.882;2024-01-07T12:54:10;976.2;;;-1.8;63.5
68873;BME280;55907;50.806;12.882;2024-01-07T13:00:12;976.2;;;-2.0;63.6
68873;BME280;55907;50.806;12.882;2024-01-07T13:03:12;976.2;;;-2.0;62.9
68873;BME280;55907;50.806;12.882;2024-01-07T13:06:16;976.2;;;-2.2;62.4
68873;BME280;55907;50.806;12.882;2024-01-07T13:09:14;976.3;;;-2.0;63.2
68873;BME280;55907;50.806;12.882;2024-01-07T13:12:15;976.3;;;-1.9;62.7
68873;BME280;55907;50.806;12.882;2024-01-07T13:18:16;976.4;;;-2.0;63.3
68873;BME280;55907;50.806;12.882;2024-01-07T13:24:18;976.4;;;-2.0;63.2
68873;BME280;55907;50.806;12.882;2024-01-07T13:27:19;976.5;;;-2.0;64.0
68873;BME280;55907;50.806;12.882;2024-01-07T13:30:20;976.5;;;-2.0;63.3
68873;BME280;55907;50.806;12.882;2024-01-07T13:33:20;976.5;;;-2.0;63.1
68873;BME280;55907;50.806;12.882;2024-01-07T13:36:21;976.5;;;-1.9;63.7
68873;BME280;55907;50.806;12.882;2024-01-07T13:39:22;976.6;;;-2.0;63.4
68873;BME280;55907;50.806;12.882;2024-01-07T13:42:23;976.6;;;-2.1;63.1
68873;BME280;55907;50.806;12.882;2024-01-07T13:45:24;976.6;;;-2.0;64.0
68873;BME280;55907;50.806;12.882;2024-01-07T13:48:25;976.6;;;-2.0;64.0
68873;BME280;55907;50.806;12.882;2024-01-07T13:51:25;976.6;;;-1.9;63.9
68873;BME280;55907;50.806;12.882;2024-01-07T13:54:26;976.7;;;-1.9;63.9
68873;BME280;55907;50.806;12.882;2024-01-07T13:57:27;976.7;;;-2.0;63.9
68873;BME280;55907;50.806;12.882;2024-01-07T14:00:28;976.7;;;-1.9;64.6
68873;BME280;55907;50.806;12.882;2024-01-07T14:03:29;976.7;;;-2.0;65.2
68873;BME280;55907;50.806;12.882;2024-01-07T14:06:30;976.7;;;-2.0;65.0
68873;BME280;55907;50.806;12.882;2024-01-07T14:09:30;976.8;;;-2.1;65.1
68873;BME280;55907;50.806;12.882;2024-01-07T14:12:31;976.8;;;-2.1;65.1
68873;BME280;55907;50.806;12.882;2024-01-07T14:15:32;976.8;;;-2.1;65.4
68873;BME280;55907;50.806;12.882;2024-01-07T14:18:33;976.9;;;-2.1;65.8
68873;BME280;55907;50.806;12.882;2024-01-07T14:24:34;976.9;;;-2.2;66.0
68873;BME280;55907;50.806;12.882;2024-01-07T14:27:35;976.9;;;-2.2;65.0
68873;BME280;55907;50.806;12.882;2024-01-07T14:30:36;976.9;;;-2.2;65.3
68873;BME280;55907;50.806;12.882;2024-01-07T14:36:39;976.9;;;-2.2;64.8
68873;BME280;55907;50.806;12.882;2024-01-07T14:39:39;976.9;;;-2.1;65.0
68873;BME280;55907;50.806;12.882;2024-01-07T14:42:39;976.8;;;-2.1;64.4
68873;BME280;55907;50.806;12.882;2024-01-07T14:45:40;976.9;;;-2.1;64.3
68873;BME280;55907;50.806;12.882;2024-01-07T14:48:41;976.9;;;-2.1;64.6
68873;BME280;55907;50.806;12.882;2024-01-07T14:51:42;977.0;;;-2.1;64.8
68873;BME280;55907;50.806;12.882;2024-01-07T14:54:43;976.9;;;-2.1;65.3
68873;BME280;55907;50.806;12.882;2024-01-07T14:57:43;977.0;;;-2.1;64.8
68873;BME280;55907;50.806;12.882;2024-01-07T15:00:44;976.9;;;-2.1;64.8
68873;BME280;55907;50.806;12.882;2024-01-07T15:03:45;977.0;;;-2.2;65.3
68873;BME280;55907;50.806;12.882;2024-01-07T15:06:46;977.0;;;-2.2;65.6
68873;BME280;55907;50.806;12.882;2024-01-07T15:09:47;977.1;;;-2.1;65.9
68873;BME280;55907;50.806;12.882;2024-01-07T15:12:48;977.0;;;-2.1;66.0
68873;BME280;55907;50.806;12.882;2024-01-07T15:15:49;977.1;;;-2.1;65.9
68873;BME280;55907;50.806;12.882;2024-01-07T15:18:49;977.1;;;-2.1;65.8
68873;BME280;55907;50.806;12.882;2024-01-07T15:21:50;977.2;;;-2.2;66.1
68873;BME280;55907;50.806;12.882;2024-01-07T15:24:51;977.2;;;-2.1;66.4
68873;BME280;55907;50.806;12.882;2024-01-07T15:27:52;977.2;;;-2.2;66.0
68873;BME280;55907;50.806;12.882;2024-01-07T15:30:53;977.3;;;-2.2;66.3
68873;BME280;55907;50.806;12.882;2024-01-07T15:33:54;977.3;;;-2.2;67.1
68873;BME280;55907;50.806;12.882;2024-01-07T15:36:54;977.3;;;-2.0;67.1
68873;BME280;55907;50.806;12.882;2024-01-07T15:39:55;977.4;;;-1.9;67.9
68873;BME280;55907;50.806;12.882;2024-01-07T15:42:56;977.4;;;-2.0;66.4
68873;BME280;55907;50.806;12.882;2024-01-07T15:45:58;977.4;;;-2.0;66.8
68873;BME280;55907;50.806;12.882;2024-01-07T15:48:58;977.4;;;-2.0;66.3
68873;BME280;55907;50.806;12.882;2024-01-07T15:51:59;977.5;;;-2.0;66.8
68873;BME280;55907;50.806;12.882;2024-01-07T15:55:00;977.5;;;-2.0;66.5
68873;BME280;55907;50.806;12.882;2024-01-07T15:58:00;977.5;;;-1.9;66.3
68873;BME280;55907;50.806;12.882;2024-01-07T16:01:02;977.5;;;-1.9;66.9
68873;BME280;55907;50.806;12.882;2024-01-07T16:04:02;977.5;;;-1.9;66.2
68873;BME280;55907;50.806;12.882;2024-01-07T16:07:03;977.5;;;-1.9;67.0
68873;BME280;55907;50.806;12.882;2024-01-07T16:10:04;977.5;;;-2.0;66.4
68873;BME280;55907;50.806;12.882;2024-01-07T16:13:04;977.6;;;-2.0;66.7
68873;BME280;55907;50.806;12.882;2024-01-07T16:16:06;977.7;;;-2.0;67.0
68873;BME280;55907;50.806;12.882;2024-01-07T16:19:06;977.7;;;-2.0;67.6
68873;BME280;55907;50.806;12.882;2024-01-07T16:22:07;977.7;;;-2.0;67.8
68873;BME280;55907;50.806;12.882;2024-01-07T16:25:08;977.7;;;-2.0;68.0
68873;BME280;55907;50.806;12.882;2024-01-07T16:28:08;977.7;;;-1.9;68.3
68873;BME280;55907;50.806;12.882;2024-01-07T16:31:09;977.7;;;-1.8;67.8
68873;BME280;55907;50.806;12.882;2024-01-07T16:34:10;977.8;;;-1.7;67.8
68873;BME280;55907;50.806;12.882;2024-01-07T16:37:11;977.7;;;-1.8;67.5
68873;BME280;55907;50.806;12.882;2024-01-07T16:40:14;977.6;;;-1.9;67.6
68873;BME280;55907;50.806;12.882;2024-01-07T16:43:12;977.7;;;-1.9;68.0
68873;BME280;55907;50.806;12.882;2024-01-07T16:49:14;977.7;;;-1.8;67.9
68873;BME280;55907;50.806;12.882;2024-01-07T16:52:15;977.7;;;-1.8;68.1
68873;BME280;55907;50.806;12.882;2024-01-07T16:55:16;977.7;;;-1.9;68.1
68873;BME280;55907;50.806;12.882;2024-01-07T16:58:17;977.7;;;-1.9;68.9
68873;BME280;55907;50.806;12.882;2024-01-07T17:01:20;977.8;;;-1.8;68.8
68873;BME280;55907;50.806;12.882;2024-01-07T17:04:18;977.8;;;-1.8;68.7
68873;BME280;55907;50.806;12.882;2024-01-07T17:07:19;977.9;;;-1.7;68.6
68873;BME280;55907;50.806;12.882;2024-01-07T17:10:20;977.9;;;-1.8;68.4
68873;BME280;55907;50.806;12.882;2024-01-07T17:13:21;977.9;;;-1.8;69.0
68873;BME280;55907;50.806;12.882;2024-01-07T17:19:22;977.9;;;-1.9;68.9
68873;BME280;55907;50.806;12.882;2024-01-07T17:25:24;977.9;;;-2.0;68.5
68873;BME280;55907;50.806;12.882;2024-01-07T17:31:26;978.0;;;-1.9;68.7
68873;BME280;55907;50.806;12.882;2024-01-07T17:34:26;978.0;;;-2.0;68.0
68873;BME280;55907;50.806;12.882;2024-01-07T17:37:27;978.1;;;-2.0;67.7